createdAt,value
2022-09-03T00:01:50.887Z,38.14
2022-09-03T00:04:55.464Z,38.15
2022-09-03T00:08:39.029Z,38.13
2022-09-03T00:11:54.284Z,38.07
2022-09-03T00:15:03.328Z,38.40
2022-09-03T00:18:09.929Z,38.05
2022-09-03T00:21:22.577Z,38.36
2022-09-03T00:24:29.989Z,38.10
2022-09-03T00:27:36.500Z,38.25
2022-09-03T00:30:40.881Z,38.18
2022-09-03T00:33:46.764Z,38.48
2022-09-03T00:36:48.634Z,38.37
2022-09-03T00:39:50.272Z,38.48
2022-09-03T00:43:06.289Z,38.58
2022-09-03T00:46:32.617Z,38.28
2022-09-03T00:49:41.450Z,38.31
2022-09-03T00:53:12.594Z,38.61
2022-09-03T00:56:22.888Z,38.63
2022-09-03T01:00:06.069Z,38.57
2022-09-03T01:03:23.063Z,38.87
2022-09-03T01:06:46.433Z,38.54
2022-09-03T01:10:21.408Z,38.49
2022-09-03T01:13:37.240Z,38.65
2022-09-03T01:16:53.261Z,38.84
2022-09-03T01:20:19.146Z,38.94
2022-09-03T01:23:35.919Z,38.60
2022-09-03T01:26:49.732Z,38.80
2022-09-03T01:30:17.889Z,38.88
2022-09-03T01:33:34.857Z,39.08
2022-09-03T01:36:57.653Z,39.08
2022-09-03T01:39:59.332Z,39.05
2022-09-03T01:43:37.918Z,38.87
2022-09-03T01:46:45.790Z,39.01
2022-09-03T01:50:00.452Z,39.31
2022-09-03T01:53:26.781Z,39.06
2022-09-03T01:56:42.179Z,39.23
2022-09-03T01:59:59.004Z,39.08
2022-09-03T02:03:05.873Z,39.12
2022-09-03T02:06:09.214Z,39.39
2022-09-03T02:09:10.763Z,39.52
2022-09-03T02:12:16.940Z,39.47
2022-09-03T02:15:21.629Z,39.18
2022-09-03T02:18:31.399Z,39.32
2022-09-03T02:21:38.505Z,39.52
2022-09-03T02:24:40.235Z,39.60
2022-09-03T02:27:42.199Z,39.45
2022-09-03T02:30:44.034Z,39.42
2022-09-03T02:33:48.265Z,39.59
2022-09-03T02:36:49.899Z,39.49
2022-09-03T02:39:54.572Z,39.56
2022-09-03T02:42:56.312Z,39.59
2022-09-03T02:46:05.180Z,39.83
2022-09-03T02:49:07.275Z,39.66
2022-09-03T02:52:11.917Z,39.78
2022-09-03T02:55:13.571Z,39.59
2022-09-03T02:58:15.380Z,39.74
2022-09-03T03:01:23.710Z,39.99
2022-09-03T03:04:26.491Z,40.02
2022-09-03T03:07:34.425Z,40.03
2022-09-03T03:10:36.106Z,40.11
2022-09-03T03:13:37.636Z,40.20
2022-09-03T03:16:39.315Z,39.89
2022-09-03T03:19:40.866Z,40.04
2022-09-03T03:22:42.539Z,40.01
2022-09-03T03:25:44.712Z,39.98
2022-09-03T03:28:49.001Z,40.18
2022-09-03T03:31:51.138Z,40.21
2022-09-03T03:34:52.721Z,40.17
2022-09-03T03:37:54.595Z,40.20
2022-09-03T03:40:56.231Z,40.23
2022-09-03T03:44:00.416Z,40.06
2022-09-03T03:47:02.696Z,40.46
2022-09-03T03:50:05.070Z,40.44
2022-09-03T03:53:06.692Z,40.37
2022-09-03T03:56:12.213Z,40.41
2022-09-03T03:59:13.756Z,40.58
2022-09-03T04:02:18.384Z,40.35
2022-09-03T04:05:23.227Z,40.40
2022-09-03T04:08:25.976Z,40.49
2022-09-03T04:11:27.726Z,40.56
2022-09-03T04:14:29.388Z,40.57
2022-09-03T04:17:31.240Z,40.61
2022-09-03T04:20:32.898Z,40.81
2022-09-03T04:23:36.911Z,40.57
2022-09-03T04:26:39.111Z,40.74
2022-09-03T04:29:40.701Z,41.01
2022-09-03T04:32:54.605Z,40.65
2022-09-03T04:36:08.084Z,40.71
2022-09-03T04:39:09.681Z,40.75
2022-09-03T04:42:11.327Z,40.73
2022-09-03T04:45:18.562Z,40.83
2022-09-03T04:48:20.188Z,40.95
2022-09-03T04:51:31.874Z,40.83
2022-09-03T04:54:33.529Z,40.72
2022-09-03T04:57:37.897Z,40.83
2022-09-03T05:00:40.060Z,40.83
2022-09-03T05:03:41.860Z,40.81
2022-09-03T05:06:45.363Z,40.96
2022-09-03T05:09:46.924Z,40.83
2022-09-03T05:12:49.937Z,40.79
2022-09-03T05:15:51.617Z,40.83
2022-09-03T05:18:54.932Z,40.81
2022-09-03T05:21:56.477Z,41.04
2022-09-03T05:24:58.000Z,40.98
2022-09-03T05:28:00.002Z,40.82
2022-09-03T05:31:03.399Z,40.83
2022-09-03T05:34:06.227Z,41.02
2022-09-03T05:37:07.815Z,40.70
2022-09-03T05:40:11.464Z,40.82
2022-09-03T05:43:13.608Z,40.83
2022-09-03T05:46:18.690Z,40.90
2022-09-03T05:49:20.295Z,41.07
2022-09-03T05:52:23.498Z,41.08
2022-09-03T05:55:25.198Z,40.83
2022-09-03T05:58:35.193Z,40.84
2022-09-03T06:01:39.068Z,41.01
2022-09-03T06:04:40.675Z,40.81
2022-09-03T06:07:42.436Z,41.05
2022-09-03T06:10:45.053Z,40.90
2022-09-03T06:13:47.691Z,40.94
2022-09-03T06:16:52.546Z,41.06
2022-09-03T06:19:54.217Z,41.09
2022-09-03T06:22:55.844Z,40.80
2022-09-03T06:26:05.463Z,40.82
2022-09-03T06:29:08.229Z,41.07
2022-09-03T06:32:09.784Z,41.08
2022-09-03T06:35:11.568Z,41.00
2022-09-03T06:38:13.813Z,40.81
2022-09-03T06:41:21.491Z,40.78
2022-09-03T06:44:23.150Z,40.66
2022-09-03T06:47:24.812Z,41.03
2022-09-03T06:50:26.521Z,40.90
2022-09-03T06:53:32.081Z,40.66
2022-09-03T06:56:39.865Z,40.73
2022-09-03T06:59:43.830Z,40.63
2022-09-03T07:02:45.479Z,40.95
2022-09-03T07:05:48.152Z,40.70
2022-09-03T07:08:49.787Z,40.49
2022-09-03T07:11:51.369Z,40.64
2022-09-03T07:14:52.928Z,40.64
2022-09-03T07:17:55.768Z,40.58
2022-09-03T07:21:07.553Z,40.71
2022-09-03T07:24:09.869Z,40.84
2022-09-03T07:27:14.954Z,40.34
2022-09-03T07:30:18.715Z,40.55
2022-09-03T07:33:20.917Z,40.46
2022-09-03T07:36:24.410Z,40.62
2022-09-03T07:39:26.087Z,40.37
2022-09-03T07:42:29.028Z,40.36
2022-09-03T07:45:32.583Z,40.70
2022-09-03T07:48:37.506Z,40.43
2022-09-03T07:51:40.083Z,40.36
2022-09-03T07:54:41.896Z,40.51
2022-09-03T07:57:43.532Z,40.52
2022-09-03T08:00:45.152Z,40.29
2022-09-03T08:03:49.483Z,40.29
2022-09-03T08:06:55.471Z,40.24
2022-09-03T08:09:57.430Z,40.18
2022-09-03T08:12:59.096Z,40.26
2022-09-03T08:16:01.442Z,39.84
2022-09-03T08:19:04.306Z,40.01
2022-09-03T08:22:05.911Z,39.96
2022-09-03T08:25:07.858Z,39.91
2022-09-03T08:28:15.224Z,39.89
2022-09-03T08:31:19.837Z,39.84
2022-09-03T08:34:21.496Z,39.83
2022-09-03T08:37:29.064Z,39.81
2022-09-03T08:40:33.769Z,39.82
2022-09-03T08:43:53.515Z,39.88
2022-09-03T08:47:05.518Z,39.84
2022-09-03T08:50:18.207Z,39.84
2022-09-03T08:53:27.104Z,39.68
2022-09-03T08:56:33.494Z,39.77
2022-09-03T08:59:35.272Z,39.64
2022-09-03T09:03:06.189Z,39.58
2022-09-03T09:06:14.928Z,39.50
2022-09-03T09:09:31.488Z,39.41
2022-09-03T09:12:47.624Z,39.36
2022-09-03T09:15:55.162Z,39.34
2022-09-03T09:19:31.643Z,39.16
2022-09-03T09:22:39.384Z,39.26
2022-09-03T09:25:51.301Z,39.08
2022-09-03T09:29:02.587Z,39.28
2022-09-03T09:32:09.346Z,38.93
2022-09-03T09:35:11.445Z,38.90
2022-09-03T09:38:14.133Z,38.60
2022-09-03T09:41:20.256Z,38.85
2022-09-03T09:44:22.677Z,38.60
2022-09-03T09:47:31.728Z,38.47
2022-09-03T09:50:33.477Z,38.24
2022-09-03T09:53:35.317Z,38.15
2022-09-03T09:56:37.040Z,38.07
2022-09-03T09:59:38.837Z,38.21
2022-09-03T10:02:51.756Z,37.61
2022-09-03T10:06:23.918Z,37.52
2022-09-03T10:09:31.833Z,37.43
2022-09-03T10:12:36.538Z,37.17
2022-09-03T10:15:40.980Z,37.04
2022-09-03T10:18:49.265Z,36.98
2022-09-03T10:22:09.176Z,36.74
2022-09-03T10:25:11.073Z,36.87
2022-09-03T10:28:13.872Z,36.49
2022-09-03T10:31:35.084Z,36.48
2022-09-03T10:35:14.161Z,36.46
2022-09-03T10:38:34.108Z,36.49
2022-09-03T10:41:59.579Z,36.24
2022-09-03T10:45:12.366Z,36.27
2022-09-03T10:48:32.711Z,36.00
2022-09-03T10:51:36.781Z,36.31
2022-09-03T10:55:12.108Z,35.85
2022-09-03T10:58:28.823Z,35.92
2022-09-03T11:01:42.626Z,35.85
2022-09-03T11:04:58.008Z,35.60
2022-09-03T11:08:24.469Z,35.34
2022-09-03T11:11:42.227Z,35.48
2022-09-03T11:15:10.261Z,35.45
2022-09-03T11:18:43.305Z,35.43
2022-09-03T11:21:47.783Z,35.41
2022-09-03T11:24:54.984Z,35.46
2022-09-03T11:28:21.664Z,34.94
2022-09-03T11:31:26.403Z,35.19
2022-09-03T11:34:32.183Z,34.79
2022-09-03T11:37:50.090Z,35.00
2022-09-03T11:41:12.993Z,34.94
2022-09-03T11:44:19.321Z,34.70
2022-09-03T11:47:38.558Z,34.37
2022-09-03T11:50:51.844Z,34.71
2022-09-03T11:53:59.146Z,34.59
2022-09-03T11:57:13.226Z,34.75
2022-09-03T12:00:22.781Z,34.65
2022-09-03T12:03:37.498Z,34.61
2022-09-03T12:06:59.569Z,34.29
2022-09-03T12:10:13.793Z,34.40
2022-09-03T12:13:20.987Z,34.08
2022-09-03T12:16:27.951Z,33.99
2022-09-03T12:19:37.443Z,34.41
2022-09-03T12:22:39.787Z,34.14
2022-09-03T12:25:48.392Z,34.16
2022-09-03T12:28:53.745Z,34.07
2022-09-03T12:31:56.534Z,33.89
2022-09-03T12:34:59.145Z,33.97
2022-09-03T12:38:05.868Z,33.88
2022-09-03T12:41:23.473Z,33.63
2022-09-03T12:44:31.661Z,33.73
2022-09-03T12:47:39.634Z,33.66
2022-09-03T12:50:48.560Z,33.51
2022-09-03T12:53:53.404Z,33.49
2022-09-03T12:56:58.632Z,33.27
2022-09-03T13:00:06.439Z,33.27
2022-09-03T13:03:31.732Z,33.31
2022-09-03T13:06:42.361Z,33.41
2022-09-03T13:09:46.617Z,33.24
2022-09-03T13:12:53.167Z,33.01
2022-09-03T13:16:17.061Z,32.97
2022-09-03T13:19:43.492Z,33.09
2022-09-03T13:22:54.101Z,33.22
2022-09-03T13:26:18.508Z,32.92
2022-09-03T13:29:26.891Z,32.73
2022-09-03T13:32:36.092Z,32.59
2022-09-03T13:35:48.811Z,32.82
2022-09-03T13:38:52.375Z,32.81
2022-09-03T13:42:06.957Z,32.64
2022-09-03T13:45:30.262Z,32.53
2022-09-03T13:48:53.434Z,32.45
2022-09-03T13:52:02.700Z,32.43
2022-09-03T13:55:12.820Z,32.45
2022-09-03T13:58:28.659Z,32.25
2022-09-03T14:02:12.232Z,32.27
2022-09-03T14:05:34.550Z,32.27
2022-09-03T14:09:16.645Z,32.25
2022-09-03T14:12:36.201Z,32.21
2022-09-03T14:15:48.387Z,32.24
2022-09-03T14:18:58.384Z,32.00
2022-09-03T14:22:05.932Z,32.00
2022-09-03T14:25:16.158Z,32.10
2022-09-03T14:28:41.696Z,32.09
2022-09-03T14:32:08.254Z,32.00
2022-09-03T14:35:24.278Z,32.03
2022-09-03T14:38:47.872Z,31.96
2022-09-03T14:42:18.032Z,31.91
2022-09-03T14:45:41.676Z,31.63
2022-09-03T14:48:49.095Z,31.70
2022-09-03T14:52:42.145Z,31.84
2022-09-03T14:56:05.301Z,31.96
2022-09-03T14:59:25.271Z,31.90
2022-09-03T15:02:46.327Z,31.89
2022-09-03T15:06:28.088Z,31.84
2022-09-03T15:09:40.302Z,31.54
2022-09-03T15:12:51.681Z,31.65
2022-09-03T15:16:06.371Z,31.61
2022-09-03T15:19:07.995Z,31.44
2022-09-03T15:22:37.952Z,31.67
2022-09-03T15:25:58.248Z,31.50
2022-09-03T15:29:11.973Z,31.64
2022-09-03T15:32:29.509Z,31.52
2022-09-03T15:35:56.475Z,31.31
2022-09-03T15:39:06.762Z,31.36
2022-09-03T15:42:14.871Z,31.52
2022-09-03T15:45:32.568Z,31.51
2022-09-03T15:49:03.470Z,31.44
2022-09-03T15:52:33.730Z,31.52
2022-09-03T15:55:39.214Z,31.44
2022-09-03T15:59:01.771Z,31.35
2022-09-03T16:02:12.497Z,31.30
2022-09-03T16:05:20.125Z,31.33
2022-09-03T16:08:34.045Z,31.37
2022-09-03T16:11:50.766Z,31.29
2022-09-03T16:14:59.162Z,31.13
2022-09-03T16:18:09.331Z,31.29
2022-09-03T16:21:38.739Z,31.14
2022-09-03T16:24:53.834Z,31.21
2022-09-03T16:28:10.254Z,31.29
2022-09-03T16:31:33.532Z,31.19
2022-09-03T16:34:53.273Z,31.07
2022-09-03T16:38:03.743Z,31.26
2022-09-03T16:41:24.064Z,31.02
2022-09-03T16:44:51.904Z,31.18
2022-09-03T16:48:15.100Z,30.97
2022-09-03T16:51:39.413Z,31.42
2022-09-03T16:55:04.469Z,31.27
2022-09-03T16:58:43.300Z,31.15
2022-09-03T17:01:55.700Z,31.34
2022-09-03T17:05:20.792Z,31.34
2022-09-03T17:08:54.065Z,31.30
2022-09-03T17:11:58.368Z,31.36
2022-09-03T17:15:18.083Z,31.12
2022-09-03T17:18:47.713Z,31.21
2022-09-03T17:21:49.375Z,31.30
2022-09-03T17:25:01.550Z,31.24
2022-09-03T17:28:24.805Z,31.09
2022-09-03T17:31:41.773Z,31.48
2022-09-03T17:35:15.153Z,31.47
2022-09-03T17:38:52.748Z,31.61
2022-09-03T17:42:15.385Z,31.52
2022-09-03T17:45:48.270Z,31.32
2022-09-03T17:48:57.851Z,31.73
2022-09-03T17:52:20.115Z,31.68
2022-09-03T17:55:37.462Z,31.70
2022-09-03T17:58:49.959Z,31.58
2022-09-03T18:02:20.659Z,31.77
2022-09-03T18:05:30.663Z,31.52
2022-09-03T18:08:56.374Z,31.65
2022-09-03T18:12:22.295Z,31.50
2022-09-03T18:15:26.856Z,32.03
2022-09-03T18:18:34.858Z,31.77
2022-09-03T18:21:57.418Z,31.50
2022-09-03T18:25:19.742Z,31.58
2022-09-03T18:28:51.535Z,31.67
2022-09-03T18:32:12.161Z,31.60
2022-09-03T18:35:32.435Z,31.78
2022-09-03T18:38:56.809Z,31.46
2022-09-03T18:42:51.909Z,32.03
2022-09-03T18:47:54.364Z,31.62
2022-09-03T18:50:30.265Z,31.68
2022-09-03T18:54:16.977Z,31.59
2022-09-03T18:57:46.251Z,31.95
2022-09-03T19:01:43.903Z,31.63
2022-09-03T19:05:25.162Z,31.71
2022-09-03T19:09:03.277Z,31.74
2022-09-03T19:12:59.469Z,32.04
2022-09-03T19:16:38.563Z,31.95
2022-09-03T19:20:34.348Z,31.76
2022-09-03T19:23:55.782Z,31.78
2022-09-03T19:27:59.896Z,32.15
2022-09-03T19:31:31.744Z,31.90
2022-09-03T19:35:01.418Z,32.19
2022-09-03T19:38:34.696Z,31.96
2022-09-03T19:42:14.050Z,31.96
2022-09-03T19:45:52.049Z,31.87
2022-09-03T19:49:21.568Z,31.79
2022-09-03T19:52:48.046Z,32.11
2022-09-03T19:56:17.301Z,31.96
2022-09-03T19:59:42.436Z,32.19
2022-09-03T20:03:06.298Z,32.05
2022-09-03T20:06:28.240Z,32.27
2022-09-03T20:09:55.725Z,32.38
2022-09-03T20:13:15.593Z,32.20
2022-09-03T20:16:24.632Z,32.36
2022-09-03T20:19:35.867Z,32.44
2022-09-03T20:22:43.230Z,32.22
2022-09-03T20:26:10.692Z,32.20
2022-09-03T20:29:22.732Z,32.30
2022-09-03T20:32:56.845Z,32.40
2022-09-03T20:36:15.583Z,32.33
2022-09-03T20:40:11.298Z,32.54
2022-09-03T20:43:37.747Z,32.44
2022-09-03T20:47:06.427Z,32.54
2022-09-03T20:50:18.672Z,32.50
2022-09-03T20:53:30.790Z,32.59
2022-09-03T20:56:36.282Z,32.62
2022-09-03T20:59:44.548Z,32.57
2022-09-03T21:03:21.757Z,32.57
2022-09-03T21:06:50.561Z,32.66
2022-09-03T21:10:13.562Z,32.71
2022-09-03T21:13:41.792Z,32.81
2022-09-03T21:16:55.889Z,32.75
2022-09-03T21:20:31.533Z,32.75
2022-09-03T21:23:43.130Z,32.98
2022-09-03T21:26:50.580Z,32.72
2022-09-03T21:30:07.338Z,32.89
2022-09-03T21:33:19.513Z,32.94
2022-09-03T21:36:33.896Z,32.93
2022-09-03T21:39:51.544Z,32.91
2022-09-03T21:43:03.529Z,32.84
2022-09-03T21:46:09.606Z,32.93
2022-09-03T21:49:16.476Z,33.01
2022-09-03T21:52:21.725Z,33.04
2022-09-03T21:55:34.462Z,32.96
2022-09-03T21:59:08.286Z,33.09
2022-09-03T22:02:27.145Z,33.04
2022-09-03T22:05:37.445Z,33.08
2022-09-03T22:08:50.613Z,33.07
2022-09-03T22:12:06.861Z,33.23
2022-09-03T22:15:13.286Z,33.32
2022-09-03T22:18:32.468Z,33.10
2022-09-03T22:21:45.599Z,33.14
2022-09-03T22:24:58.804Z,33.04
2022-09-03T22:28:12.758Z,33.45
2022-09-03T22:31:20.239Z,33.32
2022-09-03T22:34:40.012Z,33.39
2022-09-03T22:38:19.371Z,33.45
2022-09-03T22:41:39.524Z,33.36
2022-09-03T22:45:05.732Z,33.73
2022-09-03T22:48:14.765Z,33.60
2022-09-03T22:51:21.495Z,33.80
2022-09-03T22:54:47.862Z,33.78
2022-09-03T22:58:11.156Z,33.70
2022-09-03T23:01:23.523Z,33.77
2022-09-03T23:04:34.320Z,33.64
2022-09-03T23:07:46.300Z,33.77
2022-09-03T23:11:13.293Z,33.53
2022-09-03T23:14:41.390Z,33.73
2022-09-03T23:17:47.583Z,33.83
2022-09-03T23:21:22.132Z,33.81
2022-09-03T23:24:59.113Z,33.65
2022-09-03T23:28:02.559Z,33.93
2022-09-03T23:31:25.664Z,33.91
2022-09-03T23:34:27.383Z,33.97
2022-09-03T23:37:56.604Z,34.16
2022-09-03T23:41:04.156Z,33.97
2022-09-03T23:44:20.673Z,33.87
2022-09-03T23:47:45.733Z,33.94
2022-09-03T23:50:50.548Z,34.24
2022-09-03T23:54:19.796Z,34.01
2022-09-03T23:57:24.847Z,34.16
